createdAt,value
2016-12-30T00:00:32.356Z,0
2016-12-30T00:01:13.933Z,0
2016-12-30T00:03:44.904Z,0
2016-12-30T00:04:26.598Z,0
2016-12-30T00:05:08.235Z,0
2016-12-30T00:05:49.696Z,0
2016-12-30T00:06:31.510Z,0
2016-12-30T00:07:13.065Z,0
2016-12-30T00:07:54.867Z,0
2016-12-30T00:08:36.665Z,0
2016-12-30T00:09:18.382Z,0
2016-12-30T00:10:00.067Z,0
2016-12-30T00:10:41.705Z,0
2016-12-30T00:11:23.525Z,0
2016-12-30T00:12:05.312Z,0
2016-12-30T00:12:47.062Z,0
2016-12-30T00:13:28.873Z,0
2016-12-30T00:14:10.642Z,0
2016-12-30T00:14:52.480Z,0
2016-12-30T00:15:34.258Z,0
2016-12-30T00:16:15.876Z,0
2016-12-30T00:16:57.632Z,0
2016-12-30T00:17:39.380Z,0
2016-12-30T00:18:21.134Z,0
2016-12-30T00:19:02.921Z,0
2016-12-30T00:19:44.752Z,0
2016-12-30T00:20:26.556Z,0
2016-12-30T00:21:08.283Z,0
2016-12-30T00:21:50.018Z,0
2016-12-30T00:22:31.815Z,0
2016-12-30T00:23:13.578Z,0
2016-12-30T00:23:55.151Z,0
2016-12-30T00:24:36.890Z,0
2016-12-30T00:25:18.595Z,0
2016-12-30T00:26:00.224Z,0
2016-12-30T00:26:42.023Z,0
2016-12-30T00:29:13.257Z,0
2016-12-30T00:29:55.046Z,0
2016-12-30T00:32:26.099Z,0
2016-12-30T00:33:07.758Z,0
2016-12-30T00:33:49.286Z,0
2016-12-30T00:36:30.987Z,0
2016-12-30T00:37:12.711Z,0
2016-12-30T00:37:54.513Z,0
2016-12-30T00:38:36.266Z,0
2016-12-30T00:39:18.010Z,0
2016-12-30T00:39:59.745Z,0
2016-12-30T00:40:41.477Z,0
2016-12-30T00:43:02.334Z,0
2016-12-30T00:43:44.034Z,0
2016-12-30T00:44:25.826Z,0
2016-12-30T00:45:07.586Z,0
2016-12-30T00:45:49.355Z,0
2016-12-30T00:46:31.143Z,0
2016-12-30T00:47:12.662Z,0
2016-12-30T00:47:54.470Z,0
2016-12-30T00:48:36.196Z,0
2016-12-30T00:51:18.151Z,0
2016-12-30T00:51:59.889Z,0
2016-12-30T00:52:41.516Z,0
2016-12-30T00:53:23.115Z,0
2016-12-30T00:54:04.771Z,0
2016-12-30T00:54:46.565Z,0
2016-12-30T00:55:28.289Z,0
2016-12-30T00:56:09.880Z,0
2016-12-30T00:56:51.507Z,0
2016-12-30T01:01:33.097Z,0
2016-12-30T01:02:14.826Z,0
2016-12-30T01:02:56.493Z,0
2016-12-30T01:03:37.954Z,0
2016-12-30T01:04:19.466Z,0
2016-12-30T01:05:00.976Z,0
2016-12-30T01:05:42.642Z,0
2016-12-30T01:06:24.149Z,0
2016-12-30T01:07:05.831Z,0
2016-12-30T01:07:47.543Z,0
2016-12-30T01:08:29.145Z,0
2016-12-30T01:11:05.710Z,0
2016-12-30T01:11:47.398Z,0
2016-12-30T01:12:29.209Z,0
2016-12-30T01:13:10.962Z,0
2016-12-30T01:13:52.733Z,0
2016-12-30T01:14:34.480Z,0
2016-12-30T01:15:16.251Z,0
2016-12-30T01:15:58.079Z,0
2016-12-30T01:16:39.869Z,0
2016-12-30T01:17:21.594Z,0
2016-12-30T01:18:03.342Z,0
2016-12-30T01:18:45.121Z,0
2016-12-30T01:19:26.825Z,0
2016-12-30T01:20:08.595Z,0
2016-12-30T01:20:50.377Z,0
2016-12-30T01:21:32.110Z,0
2016-12-30T01:22:13.727Z,0
2016-12-30T01:22:55.549Z,0
2016-12-30T01:23:37.323Z,0
2016-12-30T01:24:19.089Z,0
2016-12-30T01:25:00.840Z,0
2016-12-30T01:25:42.554Z,0
2016-12-30T01:26:24.297Z,0
2016-12-30T01:27:06.084Z,0
2016-12-30T01:27:47.723Z,0
2016-12-30T01:28:29.401Z,0
2016-12-30T01:29:10.945Z,0
2016-12-30T01:29:52.570Z,0
2016-12-30T01:30:34.274Z,0
2016-12-30T01:33:16.087Z,0
2016-12-30T01:33:57.752Z,0
2016-12-30T01:34:39.327Z,0
2016-12-30T01:35:20.886Z,0
2016-12-30T01:36:02.650Z,0
2016-12-30T01:36:44.238Z,0
2016-12-30T01:37:25.809Z,0
2016-12-30T01:39:46.377Z,0
2016-12-30T01:40:27.986Z,0
2016-12-30T01:41:09.774Z,0
2016-12-30T01:41:51.475Z,0
2016-12-30T01:42:33.165Z,0
2016-12-30T01:43:14.559Z,0
2016-12-30T01:43:56.071Z,0
2016-12-30T01:44:37.886Z,0
2016-12-30T01:45:19.695Z,0
2016-12-30T01:46:01.454Z,0
2016-12-30T01:48:32.490Z,0
2016-12-30T01:49:14.050Z,0
2016-12-30T01:49:55.744Z,0
2016-12-30T01:52:37.367Z,0
2016-12-30T01:53:19.106Z,0
2016-12-30T01:54:00.840Z,0
2016-12-30T01:56:42.607Z,0
2016-12-30T01:57:24.305Z,0
2016-12-30T01:59:39.696Z,0
2016-12-30T02:00:20.312Z,0
2016-12-30T02:01:00.852Z,0
2016-12-30T02:01:41.319Z,0
2016-12-30T02:02:21.837Z,0
2016-12-30T02:03:02.324Z,0
2016-12-30T02:03:42.835Z,0
2016-12-30T02:04:23.323Z,0
2016-12-30T02:05:03.829Z,0
2016-12-30T02:05:44.347Z,0
2016-12-30T02:06:24.866Z,0
2016-12-30T02:07:05.384Z,0
2016-12-30T02:07:45.903Z,0
2016-12-30T02:08:26.419Z,0
2016-12-30T02:09:06.966Z,0
2016-12-30T02:09:47.460Z,0
2016-12-30T02:10:27.944Z,0
2016-12-30T02:11:08.457Z,0
2016-12-30T02:11:48.970Z,0
2016-12-30T02:12:29.491Z,0
2016-12-30T02:13:10.023Z,0
2016-12-30T02:13:50.548Z,0
2016-12-30T02:14:31.069Z,0
2016-12-30T02:15:11.596Z,0
2016-12-30T02:15:52.104Z,0
2016-12-30T02:16:32.617Z,0
2016-12-30T02:17:13.101Z,0
2016-12-30T02:17:53.621Z,0
2016-12-30T02:18:34.102Z,0
2016-12-30T02:19:14.613Z,0
2016-12-30T02:19:55.099Z,0
2016-12-30T02:20:35.616Z,0
2016-12-30T02:21:16.162Z,0
2016-12-30T02:21:56.659Z,0
2016-12-30T02:22:37.163Z,0
2016-12-30T02:23:17.644Z,0
2016-12-30T02:23:58.166Z,0
2016-12-30T02:24:38.716Z,0
2016-12-30T02:25:19.191Z,0
2016-12-30T02:25:59.710Z,0
2016-12-30T02:26:40.215Z,0
2016-12-30T02:27:20.715Z,0
2016-12-30T02:28:01.233Z,0
2016-12-30T02:28:41.733Z,0
2016-12-30T02:29:22.239Z,0
2016-12-30T02:30:02.744Z,0
2016-12-30T02:30:43.286Z,0
2016-12-30T02:31:23.793Z,0
2016-12-30T02:32:04.318Z,0
2016-12-30T02:32:44.845Z,0
2016-12-30T02:33:25.375Z,0
2016-12-30T02:34:05.878Z,0
2016-12-30T02:34:46.381Z,0
2016-12-30T02:35:26.927Z,0
2016-12-30T02:36:07.439Z,0
2016-12-30T02:36:47.970Z,0
2016-12-30T02:37:28.498Z,0
2016-12-30T02:38:09.026Z,0
2016-12-30T02:38:49.551Z,0
2016-12-30T02:39:30.059Z,0
2016-12-30T02:40:10.586Z,0
2016-12-30T02:40:51.105Z,0
2016-12-30T02:41:31.633Z,0
2016-12-30T02:42:12.127Z,0
2016-12-30T02:42:52.661Z,0
2016-12-30T02:43:33.188Z,0
2016-12-30T02:44:13.714Z,0
2016-12-30T02:44:54.253Z,0
2016-12-30T02:45:34.833Z,0
2016-12-30T02:46:15.359Z,0
2016-12-30T02:46:55.890Z,0
2016-12-30T02:47:36.426Z,0
2016-12-30T02:48:16.959Z,0
2016-12-30T02:48:57.457Z,0
2016-12-30T02:49:37.961Z,0
2016-12-30T02:50:18.452Z,0
2016-12-30T02:50:58.977Z,0
2016-12-30T02:51:39.461Z,0
2016-12-30T02:52:19.950Z,0
2016-12-30T02:53:00.448Z,0
2016-12-30T02:53:40.975Z,0
2016-12-30T02:54:21.504Z,0
2016-12-30T02:55:02.028Z,0
2016-12-30T02:55:42.552Z,0
2016-12-30T02:56:23.071Z,0
2016-12-30T02:57:03.614Z,0
2016-12-30T02:57:44.158Z,0
2016-12-30T02:58:24.663Z,0
2016-12-30T02:59:05.174Z,0
2016-12-30T02:59:45.743Z,0
2016-12-30T03:00:26.272Z,0
2016-12-30T03:01:06.805Z,0
2016-12-30T03:01:47.336Z,0
2016-12-30T03:02:27.856Z,0
2016-12-30T03:03:08.375Z,0
2016-12-30T03:03:48.847Z,0
2016-12-30T03:04:29.366Z,0
2016-12-30T03:05:09.863Z,0
2016-12-30T03:05:50.388Z,0
2016-12-30T03:06:30.918Z,0
2016-12-30T03:07:11.416Z,0
2016-12-30T03:07:51.937Z,0
2016-12-30T03:08:32.469Z,0
2016-12-30T03:09:12.999Z,0
2016-12-30T03:09:53.520Z,0
2016-12-30T03:10:34.054Z,0
2016-12-30T03:11:14.583Z,0
2016-12-30T03:11:55.118Z,0
2016-12-30T03:12:35.648Z,0
2016-12-30T03:13:16.176Z,0
2016-12-30T03:13:56.672Z,0
2016-12-30T03:14:37.203Z,0
2016-12-30T03:15:17.699Z,0
2016-12-30T03:15:58.225Z,0
2016-12-30T03:16:38.760Z,0
2016-12-30T03:17:19.263Z,0
2016-12-30T03:17:59.773Z,0
2016-12-30T03:18:40.284Z,0
2016-12-30T03:19:20.809Z,0
2016-12-30T03:20:01.339Z,0
2016-12-30T03:20:41.850Z,0
2016-12-30T03:21:22.370Z,0
2016-12-30T03:22:02.883Z,0
2016-12-30T03:22:43.400Z,0
2016-12-30T03:23:23.909Z,0
2016-12-30T03:24:04.419Z,0
2016-12-30T03:24:44.926Z,0
2016-12-30T03:25:25.436Z,0
2016-12-30T03:26:05.991Z,0
2016-12-30T03:26:46.522Z,0
2016-12-30T03:27:27.108Z,0
2016-12-30T03:28:07.604Z,0
2016-12-30T03:28:48.106Z,0
2016-12-30T03:29:28.626Z,0
2016-12-30T03:30:09.156Z,0
2016-12-30T03:30:49.689Z,0
2016-12-30T03:31:30.218Z,0
2016-12-30T03:32:10.727Z,0
2016-12-30T03:32:51.243Z,0
2016-12-30T03:33:31.764Z,0
2016-12-30T03:34:12.278Z,0
2016-12-30T03:34:52.805Z,0
2016-12-30T03:35:33.315Z,0
2016-12-30T03:36:13.844Z,0
2016-12-30T03:36:54.357Z,0
2016-12-30T03:37:34.857Z,0
2016-12-30T03:38:15.383Z,0
2016-12-30T03:38:55.891Z,0
2016-12-30T03:39:36.408Z,0
2016-12-30T03:40:16.928Z,0
2016-12-30T03:40:57.465Z,0
2016-12-30T03:41:37.964Z,0
2016-12-30T03:42:18.496Z,0
2016-12-30T03:42:59.056Z,0
2016-12-30T03:43:39.576Z,0
2016-12-30T03:44:20.112Z,0
2016-12-30T03:45:00.628Z,0
2016-12-30T03:45:41.140Z,0
2016-12-30T03:46:21.657Z,0
2016-12-30T03:47:02.177Z,0
2016-12-30T03:47:42.683Z,0
2016-12-30T03:48:23.176Z,0
2016-12-30T03:49:03.702Z,0
2016-12-30T03:49:44.184Z,0
2016-12-30T03:50:24.691Z,0
2016-12-30T03:51:05.203Z,0
2016-12-30T03:51:45.710Z,0
2016-12-30T03:52:26.241Z,0
2016-12-30T03:53:06.773Z,0
2016-12-30T03:53:47.286Z,0
2016-12-30T03:54:27.785Z,0
2016-12-30T03:55:08.328Z,0
2016-12-30T03:55:48.853Z,0
2016-12-30T03:56:29.375Z,0
2016-12-30T03:57:09.881Z,0
2016-12-30T03:57:50.425Z,0
2016-12-30T03:58:30.957Z,0
2016-12-30T03:59:11.466Z,0
2016-12-30T03:59:51.980Z,0
2016-12-30T04:00:32.479Z,0
2016-12-30T04:01:12.983Z,0
2016-12-30T04:01:53.515Z,0
2016-12-30T04:02:33.980Z,0
2016-12-30T04:03:14.486Z,0
2016-12-30T04:03:55.023Z,0
2016-12-30T04:04:35.530Z,0
2016-12-30T04:05:16.034Z,0
2016-12-30T04:05:56.544Z,0
2016-12-30T04:06:37.057Z,0
2016-12-30T04:07:17.561Z,0
2016-12-30T04:07:58.080Z,0
2016-12-30T04:08:38.615Z,0
2016-12-30T04:09:19.159Z,0
2016-12-30T04:09:59.660Z,0
2016-12-30T04:10:40.182Z,0
2016-12-30T04:11:20.706Z,0
2016-12-30T04:12:01.219Z,0
2016-12-30T04:12:41.719Z,0
2016-12-30T04:13:22.268Z,0
2016-12-30T04:14:02.775Z,0
2016-12-30T04:14:43.301Z,0
2016-12-30T04:15:23.832Z,0
2016-12-30T04:16:04.372Z,0
2016-12-30T04:16:44.872Z,0
2016-12-30T04:17:25.385Z,0
2016-12-30T04:18:05.932Z,0
2016-12-30T04:18:46.482Z,0
2016-12-30T04:19:26.968Z,0
2016-12-30T04:20:07.483Z,0
2016-12-30T04:20:48.018Z,0
2016-12-30T04:21:28.539Z,0
2016-12-30T04:22:09.059Z,0
2016-12-30T04:22:49.588Z,0
2016-12-30T04:23:30.062Z,0
2016-12-30T04:24:10.584Z,0
2016-12-30T04:24:51.116Z,0
2016-12-30T04:25:31.629Z,0
2016-12-30T04:26:12.154Z,0
2016-12-30T04:26:52.684Z,0
2016-12-30T04:27:33.214Z,0
2016-12-30T04:28:13.741Z,0
2016-12-30T04:28:54.266Z,0
2016-12-30T04:29:34.789Z,0
2016-12-30T04:30:15.313Z,0
2016-12-30T04:30:55.821Z,0
2016-12-30T04:31:36.335Z,0
2016-12-30T04:32:16.828Z,0
2016-12-30T04:32:57.336Z,0
2016-12-30T04:33:37.860Z,0
2016-12-30T04:34:18.375Z,0
2016-12-30T04:34:58.881Z,0
2016-12-30T04:35:39.372Z,0
2016-12-30T04:36:19.888Z,0
2016-12-30T04:37:00.412Z,0
2016-12-30T04:37:40.914Z,0
2016-12-30T04:38:21.442Z,0
2016-12-30T04:39:01.962Z,0
2016-12-30T04:39:42.500Z,0
2016-12-30T04:40:23.019Z,0
2016-12-30T04:41:03.529Z,0
2016-12-30T04:41:44.049Z,0
2016-12-30T04:42:24.576Z,0
2016-12-30T04:43:05.113Z,0
2016-12-30T04:43:45.643Z,0
2016-12-30T04:44:26.180Z,0
2016-12-30T04:45:06.680Z,0
2016-12-30T04:45:47.189Z,0
2016-12-30T04:46:27.714Z,0
2016-12-30T04:47:08.266Z,0
2016-12-30T04:47:48.803Z,0
2016-12-30T04:48:29.322Z,0
2016-12-30T04:49:09.851Z,0
2016-12-30T04:49:50.364Z,0
2016-12-30T04:50:30.896Z,0
2016-12-30T04:51:11.427Z,0
2016-12-30T04:51:51.953Z,0
2016-12-30T04:52:32.487Z,0
2016-12-30T04:53:13.016Z,0
2016-12-30T04:53:53.537Z,0
2016-12-30T04:54:34.072Z,0
2016-12-30T04:55:14.579Z,0
2016-12-30T04:55:55.079Z,0
2016-12-30T04:56:35.582Z,0
2016-12-30T04:57:16.094Z,0
2016-12-30T04:57:56.611Z,0
2016-12-30T04:58:37.142Z,0
2016-12-30T04:59:17.670Z,0
2016-12-30T04:59:58.182Z,0
2016-12-30T05:00:38.710Z,0
2016-12-30T05:01:19.239Z,0
2016-12-30T05:01:59.759Z,0
2016-12-30T05:02:40.268Z,0
2016-12-30T05:03:20.793Z,0
2016-12-30T05:04:01.299Z,0
2016-12-30T05:04:41.796Z,0
2016-12-30T05:05:22.302Z,0
2016-12-30T05:06:02.831Z,0
2016-12-30T05:06:43.349Z,0
2016-12-30T05:07:23.851Z,0
2016-12-30T05:08:04.359Z,0
2016-12-30T05:08:44.910Z,0
2016-12-30T05:09:25.454Z,0
2016-12-30T05:10:06.006Z,0
2016-12-30T05:10:48.386Z,0
2016-12-30T05:11:29.540Z,0
2016-12-30T05:12:10.051Z,0
2016-12-30T05:12:50.568Z,0
2016-12-30T05:13:31.070Z,0
2016-12-30T05:14:11.593Z,0
2016-12-30T05:14:52.107Z,0
2016-12-30T05:15:32.647Z,0
2016-12-30T05:16:13.178Z,0
2016-12-30T05:16:53.690Z,0
2016-12-30T05:17:34.215Z,0
2016-12-30T05:18:14.749Z,0
2016-12-30T05:18:55.265Z,0
2016-12-30T05:19:35.787Z,0
2016-12-30T05:20:16.302Z,0
2016-12-30T05:20:56.838Z,0
2016-12-30T05:21:37.329Z,0
2016-12-30T05:22:17.865Z,0
2016-12-30T05:22:58.396Z,0
2016-12-30T05:23:38.919Z,0
2016-12-30T05:24:19.445Z,0
2016-12-30T05:24:59.969Z,0
2016-12-30T05:25:40.497Z,0
2016-12-30T05:26:21.026Z,0
2016-12-30T05:27:01.554Z,0
2016-12-30T05:27:42.091Z,0
2016-12-30T05:28:22.599Z,0
2016-12-30T05:29:03.117Z,0
2016-12-30T05:29:43.639Z,0
2016-12-30T05:30:24.177Z,0
2016-12-30T05:31:04.699Z,0
2016-12-30T05:31:45.242Z,0
2016-12-30T05:32:25.802Z,0
2016-12-30T05:33:06.330Z,0
2016-12-30T05:33:46.855Z,0
2016-12-30T05:34:27.375Z,0
2016-12-30T05:35:07.909Z,0
2016-12-30T05:35:48.443Z,0
2016-12-30T05:36:28.969Z,0
2016-12-30T05:37:09.497Z,0
2016-12-30T05:37:50.016Z,0
2016-12-30T05:38:30.545Z,0
2016-12-30T05:39:11.095Z,0
2016-12-30T05:39:51.614Z,0
2016-12-30T05:40:32.142Z,0
2016-12-30T05:41:12.676Z,0
2016-12-30T05:41:53.211Z,0
2016-12-30T05:42:33.747Z,0
2016-12-30T05:43:14.286Z,0
2016-12-30T05:43:54.811Z,0
2016-12-30T05:44:35.341Z,0
2016-12-30T05:45:15.871Z,0
2016-12-30T05:45:56.398Z,0
2016-12-30T05:46:36.927Z,0
2016-12-30T05:47:17.458Z,0
2016-12-30T05:47:57.988Z,0
2016-12-30T05:48:38.518Z,0
2016-12-30T05:49:19.058Z,0
2016-12-30T05:49:59.593Z,0
2016-12-30T05:50:40.115Z,0
2016-12-30T05:51:20.644Z,0
2016-12-30T05:52:01.180Z,0
2016-12-30T05:52:41.697Z,0
2016-12-30T05:53:22.252Z,0
2016-12-30T05:54:02.785Z,0
2016-12-30T05:54:43.305Z,0
2016-12-30T05:55:23.832Z,0
2016-12-30T05:56:04.355Z,0
2016-12-30T05:56:44.870Z,0
2016-12-30T05:57:25.398Z,0
2016-12-30T05:58:05.934Z,0
2016-12-30T05:58:46.455Z,0
2016-12-30T05:59:26.974Z,0
2016-12-30T06:00:07.530Z,0
2016-12-30T06:00:48.058Z,0
2016-12-30T06:01:28.579Z,0
2016-12-30T06:02:09.095Z,0
2016-12-30T06:02:49.608Z,0
2016-12-30T06:03:30.129Z,0
2016-12-30T06:04:10.670Z,0
2016-12-30T06:04:51.207Z,0
2016-12-30T06:05:31.722Z,0
2016-12-30T06:06:12.250Z,0
2016-12-30T06:06:52.790Z,0
2016-12-30T06:07:33.304Z,0
2016-12-30T06:08:13.847Z,0
2016-12-30T06:08:54.373Z,0
2016-12-30T06:09:34.903Z,0
2016-12-30T06:10:15.430Z,0
2016-12-30T06:10:55.973Z,0
2016-12-30T06:11:36.476Z,0
2016-12-30T06:12:16.996Z,0
2016-12-30T06:12:57.535Z,0
2016-12-30T06:13:38.081Z,0
2016-12-30T06:14:18.610Z,0
2016-12-30T06:14:59.158Z,0
2016-12-30T06:15:39.678Z,0
2016-12-30T06:16:20.185Z,0
2016-12-30T06:17:00.710Z,0
2016-12-30T06:17:41.271Z,0
2016-12-30T06:18:21.811Z,0
2016-12-30T06:19:02.331Z,0
2016-12-30T06:19:42.875Z,0
2016-12-30T06:20:23.401Z,0
2016-12-30T06:21:03.934Z,0
2016-12-30T06:21:44.456Z,0
2016-12-30T06:22:24.987Z,0
2016-12-30T06:23:05.513Z,0
2016-12-30T06:23:46.048Z,0
2016-12-30T06:24:26.569Z,0
2016-12-30T06:25:07.093Z,0
2016-12-30T06:25:47.623Z,0
2016-12-30T06:26:28.146Z,0
2016-12-30T06:27:08.680Z,0
2016-12-30T06:27:49.219Z,0
2016-12-30T06:28:29.772Z,0
2016-12-30T06:29:10.279Z,0
2016-12-30T06:29:50.817Z,0
2016-12-30T06:30:31.336Z,0
2016-12-30T06:31:11.850Z,0
2016-12-30T06:31:52.373Z,0
2016-12-30T06:32:32.894Z,0
2016-12-30T06:33:13.427Z,0
2016-12-30T06:33:53.960Z,0
2016-12-30T06:34:34.481Z,0
2016-12-30T06:35:14.997Z,0
2016-12-30T06:35:55.530Z,0
2016-12-30T06:36:36.085Z,0
2016-12-30T06:37:16.604Z,0
2016-12-30T06:37:57.118Z,0
2016-12-30T06:38:37.716Z,0
2016-12-30T06:39:18.232Z,0
2016-12-30T06:39:58.747Z,0
2016-12-30T06:40:39.283Z,0
2016-12-30T06:41:19.790Z,0
2016-12-30T06:42:00.310Z,0
2016-12-30T06:42:40.826Z,0
2016-12-30T06:43:21.339Z,0
2016-12-30T06:44:01.847Z,0
2016-12-30T06:44:42.387Z,0
2016-12-30T06:45:22.887Z,0
2016-12-30T06:46:03.416Z,0
2016-12-30T06:46:43.925Z,0
2016-12-30T06:47:24.445Z,0
2016-12-30T06:48:04.987Z,0
2016-12-30T06:48:45.521Z,0
2016-12-30T06:49:26.053Z,0
2016-12-30T06:50:06.576Z,0
2016-12-30T06:50:47.108Z,0
2016-12-30T06:51:27.638Z,0
2016-12-30T06:52:08.170Z,0
2016-12-30T06:52:48.694Z,0
2016-12-30T06:53:29.219Z,0
2016-12-30T06:54:09.745Z,0
2016-12-30T06:54:50.272Z,0
2016-12-30T06:55:30.799Z,0
2016-12-30T06:56:11.309Z,0
2016-12-30T06:56:51.835Z,0
2016-12-30T06:57:32.368Z,0
2016-12-30T06:58:12.895Z,0
2016-12-30T06:58:53.429Z,0
2016-12-30T06:59:33.950Z,0
2016-12-30T07:00:14.464Z,0
2016-12-30T07:00:55.013Z,0
2016-12-30T07:01:35.550Z,0
2016-12-30T07:02:16.081Z,0
2016-12-30T07:02:56.588Z,0
2016-12-30T07:03:37.105Z,0
2016-12-30T07:04:17.644Z,0
2016-12-30T07:04:58.150Z,0
2016-12-30T07:05:38.678Z,0
2016-12-30T07:06:19.191Z,0
2016-12-30T07:06:59.725Z,0
2016-12-30T07:07:40.242Z,0
2016-12-30T07:08:20.776Z,0
2016-12-30T07:09:01.327Z,0
2016-12-30T07:09:41.844Z,0
2016-12-30T07:10:22.349Z,0
2016-12-30T07:11:02.870Z,0
2016-12-30T07:11:43.402Z,0
2016-12-30T07:12:23.901Z,0
2016-12-30T07:13:04.434Z,0
2016-12-30T07:13:44.968Z,0
2016-12-30T07:14:25.503Z,0
2016-12-30T07:15:06.019Z,0
2016-12-30T07:15:46.545Z,0
2016-12-30T07:16:27.072Z,0
2016-12-30T07:17:07.603Z,0
2016-12-30T07:17:48.138Z,0
2016-12-30T07:18:28.657Z,0
2016-12-30T07:19:09.184Z,0
2016-12-30T07:19:49.714Z,0
2016-12-30T07:20:30.269Z,0
2016-12-30T07:21:10.790Z,0
2016-12-30T07:21:51.317Z,0
2016-12-30T07:22:31.846Z,0
2016-12-30T07:23:12.368Z,0
2016-12-30T07:23:52.904Z,0
2016-12-30T07:24:33.444Z,0
2016-12-30T07:25:13.971Z,0
2016-12-30T07:25:54.499Z,0
2016-12-30T07:26:35.059Z,0
2016-12-30T07:27:15.593Z,0
2016-12-30T07:27:56.128Z,0
2016-12-30T07:28:36.659Z,0
2016-12-30T07:29:17.155Z,0
2016-12-30T07:29:57.681Z,0
2016-12-30T07:30:38.216Z,0
2016-12-30T07:31:18.708Z,0
2016-12-30T07:31:59.236Z,0
2016-12-30T07:32:39.766Z,0
2016-12-30T07:33:20.295Z,0
2016-12-30T07:34:00.815Z,0
2016-12-30T07:34:41.342Z,5
2016-12-30T07:35:21.877Z,5
2016-12-30T07:36:02.399Z,5
2016-12-30T07:36:42.921Z,5
2016-12-30T07:37:23.445Z,5
2016-12-30T07:38:03.981Z,5
2016-12-30T07:38:44.513Z,5
2016-12-30T07:39:25.049Z,5
2016-12-30T07:40:05.581Z,5
2016-12-30T07:40:46.112Z,5
2016-12-30T07:41:26.647Z,5
2016-12-30T07:42:07.174Z,5
2016-12-30T07:42:47.699Z,5
2016-12-30T07:43:28.219Z,5
2016-12-30T07:44:08.747Z,5
2016-12-30T07:44:49.284Z,5
2016-12-30T07:45:29.826Z,5
2016-12-30T07:46:10.334Z,5
2016-12-30T07:46:50.855Z,5
2016-12-30T07:47:31.379Z,5
2016-12-30T07:48:11.911Z,5
2016-12-30T07:48:52.437Z,5
2016-12-30T07:49:32.962Z,5
2016-12-30T07:50:13.479Z,5
2016-12-30T07:50:54.005Z,10
2016-12-30T07:51:34.534Z,10
2016-12-30T07:52:15.062Z,10
2016-12-30T07:52:55.592Z,10
2016-12-30T07:53:36.120Z,10
2016-12-30T07:54:16.642Z,10
2016-12-30T07:54:57.189Z,10
2016-12-30T07:55:37.723Z,10
2016-12-30T07:56:18.228Z,10
2016-12-30T07:56:58.759Z,10
2016-12-30T07:57:39.285Z,10
2016-12-30T07:58:19.796Z,10
2016-12-30T07:59:00.326Z,10
2016-12-30T07:59:40.861Z,10
2016-12-30T08:00:21.357Z,15
2016-12-30T08:01:01.882Z,15
2016-12-30T08:01:42.422Z,15
2016-12-30T08:02:22.994Z,15
2016-12-30T08:03:03.522Z,15
2016-12-30T08:03:44.049Z,15
2016-12-30T08:04:24.542Z,15
2016-12-30T08:05:05.064Z,15
2016-12-30T08:05:45.588Z,20
2016-12-30T08:06:26.140Z,15
2016-12-30T08:07:06.667Z,20
2016-12-30T08:07:47.213Z,20
2016-12-30T08:08:27.740Z,15
2016-12-30T08:09:08.262Z,20
2016-12-30T08:09:48.803Z,20
2016-12-30T08:10:29.334Z,20
2016-12-30T08:11:09.840Z,20
2016-12-30T08:11:50.372Z,20
2016-12-30T08:12:30.873Z,25
2016-12-30T08:13:11.375Z,25
2016-12-30T08:13:51.891Z,20
2016-12-30T08:14:32.390Z,20
2016-12-30T08:15:12.934Z,25
2016-12-30T08:15:53.468Z,25
2016-12-30T08:16:34.027Z,30
2016-12-30T08:17:14.571Z,25
2016-12-30T08:17:55.083Z,30
2016-12-30T08:18:35.594Z,30
2016-12-30T08:19:16.362Z,30
2016-12-30T08:19:56.833Z,30
2016-12-30T08:20:37.333Z,30
2016-12-30T08:21:17.881Z,30
2016-12-30T08:21:58.383Z,30
2016-12-30T08:22:38.928Z,35
2016-12-30T08:23:19.456Z,40
2016-12-30T08:23:59.970Z,40
2016-12-30T08:24:40.488Z,40
2016-12-30T08:25:21.011Z,40
2016-12-30T08:26:01.540Z,45
2016-12-30T08:26:42.060Z,55
2016-12-30T08:27:22.595Z,55
2016-12-30T08:28:03.104Z,55
2016-12-30T08:28:43.641Z,50
2016-12-30T08:29:24.145Z,45
2016-12-30T08:30:04.672Z,55
2016-12-30T08:30:45.206Z,55
2016-12-30T08:31:25.740Z,50
2016-12-30T08:32:06.334Z,55
2016-12-30T08:32:46.858Z,50
2016-12-30T08:33:27.384Z,50
2016-12-30T08:34:07.915Z,50
2016-12-30T08:34:48.436Z,55
2016-12-30T08:35:28.989Z,50
2016-12-30T08:36:09.494Z,45
2016-12-30T08:36:49.953Z,50
2016-12-30T08:37:30.453Z,50
2016-12-30T08:38:10.943Z,50
2016-12-30T08:38:51.497Z,50
2016-12-30T08:39:31.952Z,45
2016-12-30T08:40:12.501Z,45
2016-12-30T08:40:53.112Z,50
2016-12-30T08:41:33.593Z,60
2016-12-30T08:42:14.111Z,50
2016-12-30T08:42:54.627Z,55
2016-12-30T08:43:35.151Z,65
2016-12-30T08:44:15.618Z,60
2016-12-30T08:44:56.153Z,60
2016-12-30T08:45:37.382Z,65
2016-12-30T08:46:17.893Z,65
2016-12-30T08:46:58.425Z,65
2016-12-30T08:47:38.964Z,70
2016-12-30T08:48:19.495Z,75
2016-12-30T08:48:59.994Z,80
2016-12-30T08:49:40.515Z,70
2016-12-30T08:50:21.028Z,85
2016-12-30T08:51:01.532Z,70
2016-12-30T08:51:42.050Z,80
2016-12-30T08:52:22.627Z,75
2016-12-30T08:53:03.152Z,70
2016-12-30T08:53:43.685Z,75
2016-12-30T08:54:24.202Z,80
2016-12-30T08:55:04.721Z,75
2016-12-30T08:55:45.208Z,75
2016-12-30T08:56:25.724Z,75
2016-12-30T08:57:06.241Z,85
2016-12-30T08:57:46.756Z,75
2016-12-30T08:58:27.274Z,80
2016-12-30T08:59:07.745Z,80
2016-12-30T08:59:48.266Z,90
2016-12-30T09:00:28.758Z,85
2016-12-30T09:01:09.276Z,80
2016-12-30T09:01:49.807Z,85
2016-12-30T09:02:30.347Z,90
2016-12-30T09:03:10.877Z,90
2016-12-30T09:03:51.379Z,95
2016-12-30T09:04:31.909Z,105
2016-12-30T09:05:12.418Z,90
2016-12-30T09:05:52.946Z,90
2016-12-30T09:06:33.478Z,90
2016-12-30T09:07:13.957Z,90
2016-12-30T09:07:54.458Z,100
2016-12-30T09:08:34.959Z,95
2016-12-30T09:09:15.468Z,110
2016-12-30T09:09:55.998Z,105
2016-12-30T09:10:36.518Z,140
2016-12-30T09:11:17.035Z,160
2016-12-30T09:11:57.581Z,140
2016-12-30T09:12:38.111Z,155
2016-12-30T09:13:18.624Z,150
2016-12-30T09:13:59.135Z,115
2016-12-30T09:14:39.668Z,160
2016-12-30T09:15:20.215Z,125
2016-12-30T09:16:00.735Z,110
2016-12-30T09:16:41.267Z,120
2016-12-30T09:17:21.796Z,130
2016-12-30T09:18:02.324Z,140
2016-12-30T09:18:42.836Z,125
2016-12-30T09:19:23.325Z,150
2016-12-30T09:20:03.822Z,140
2016-12-30T09:20:44.328Z,140
2016-12-30T09:21:24.808Z,210
2016-12-30T09:22:05.326Z,225
2016-12-30T09:22:45.824Z,245
2016-12-30T09:23:26.336Z,210
2016-12-30T09:24:06.839Z,205
2016-12-30T09:24:47.333Z,245
2016-12-30T09:25:27.829Z,250
2016-12-30T09:26:08.346Z,260
2016-12-30T09:26:48.827Z,305
2016-12-30T09:27:29.332Z,295
2016-12-30T09:28:09.845Z,200
2016-12-30T09:28:50.350Z,150
2016-12-30T09:29:30.862Z,140
2016-12-30T09:30:11.375Z,155
2016-12-30T09:30:51.891Z,130
2016-12-30T09:31:32.405Z,130
2016-12-30T09:32:12.915Z,140
2016-12-30T09:32:53.413Z,155
2016-12-30T09:33:33.954Z,200
2016-12-30T09:34:14.451Z,195
2016-12-30T09:34:54.984Z,175
2016-12-30T09:35:35.467Z,145
2016-12-30T09:36:15.946Z,160
2016-12-30T09:36:56.449Z,155
2016-12-30T09:37:37.637Z,140
2016-12-30T09:38:18.169Z,125
2016-12-30T09:38:58.688Z,170
2016-12-30T09:39:39.203Z,185
2016-12-30T09:40:19.697Z,220
2016-12-30T09:41:00.881Z,185
2016-12-30T09:41:41.400Z,165
2016-12-30T09:42:21.934Z,180
2016-12-30T09:43:02.442Z,170
2016-12-30T09:43:42.983Z,180
2016-12-30T09:44:23.488Z,205
2016-12-30T09:45:03.993Z,195
2016-12-30T09:45:44.537Z,190
2016-12-30T09:46:25.051Z,200
2016-12-30T09:47:05.516Z,180
2016-12-30T09:47:46.009Z,150
2016-12-30T09:48:26.533Z,185
2016-12-30T09:49:07.015Z,275
2016-12-30T09:49:47.540Z,360
2016-12-30T09:50:28.080Z,260
2016-12-30T09:51:08.614Z,325
2016-12-30T09:51:49.142Z,255
2016-12-30T09:52:29.666Z,340
2016-12-30T09:53:10.183Z,250
2016-12-30T09:53:50.712Z,345
2016-12-30T09:54:31.252Z,345
2016-12-30T09:55:11.763Z,305
2016-12-30T09:55:52.286Z,330
2016-12-30T09:56:32.812Z,270
2016-12-30T09:57:13.319Z,270
2016-12-30T09:57:54.777Z,335
2016-12-30T09:58:35.306Z,350
2016-12-30T09:59:15.820Z,195
2016-12-30T09:59:56.315Z,260
2016-12-30T10:00:36.827Z,345
2016-12-30T10:01:17.405Z,320
2016-12-30T10:01:57.927Z,315
2016-12-30T10:02:38.438Z,380
2016-12-30T10:03:18.960Z,375
2016-12-30T10:03:59.454Z,390
2016-12-30T10:04:39.962Z,390
2016-12-30T10:05:20.479Z,420
2016-12-30T10:06:01.006Z,425
2016-12-30T10:06:41.530Z,515
2016-12-30T10:07:22.072Z,520
2016-12-30T10:08:02.601Z,575
2016-12-30T10:08:43.135Z,600
2016-12-30T10:09:23.672Z,615
2016-12-30T10:10:04.215Z,645
2016-12-30T10:10:44.732Z,650
2016-12-30T10:11:25.269Z,645
2016-12-30T10:12:05.802Z,655
2016-12-30T10:12:46.329Z,660
2016-12-30T10:13:26.874Z,675
2016-12-30T10:14:07.431Z,680
2016-12-30T10:14:47.959Z,705
2016-12-30T10:15:28.507Z,660
2016-12-30T10:16:09.030Z,660
2016-12-30T10:16:49.555Z,650
2016-12-30T10:17:30.090Z,690
2016-12-30T10:18:10.628Z,700
2016-12-30T10:18:51.163Z,670
2016-12-30T10:19:31.691Z,690
2016-12-30T10:20:12.226Z,720
2016-12-30T10:20:52.764Z,725
2016-12-30T10:21:33.298Z,740